Jepson Prairie Reserve, California Weather observations

Data are for 10 minute period ending at time listed.
 Day   Time   Solar   Ave.   Ave.  Ave.  Vector  Max.   Baro.   Total    
  of    of     Rad.   Air    Rel.  Wind   Wind   Wind  Press.  Precip.   
Year   Day            Temp.  Hum.  Speed  Dir.   Gust                    
2014   (PST)  Kw/m2    F      %     mph   deg.    mph    mb.     in.     
-------------------------------------------------------------------------
 211    8:10   0.48   71.7    59   15.1   223    18.5   1012.9    0.00 
 211    8:20   0.51   72.6    57   14.4   219    17.9   1012.9    0.00 
 211    8:30   0.55   73.3    56   13.8   225    16.9   1012.9    0.00 
 211    8:40   0.61   74.1    55   14.2   234    18.0   1012.5    0.00 
 211    8:50   0.58   74.7    54   15.3   232    18.9   1012.5    0.00 
 211    9:00   0.65   75.2    53   14.1   231    17.2   1012.5    0.00 
 211    9:10   0.67   76.1    51   14.3   229    18.6   1012.5    0.00 
 211    9:20   0.71   77.8    48   13.1   224    16.1   1012.5    0.00 
 211    9:30   0.73   77.9    48   13.2   225    17.4   1012.5    0.00 
 211    9:40   0.75   78.6    47   13.3   216    17.0   1012.5    0.00 
 211    9:50   0.62   79.6    46   12.2   216    16.7   1012.5    0.00 
 211   10:00   0.70   79.6    46   12.2   216    16.0   1012.5    0.00 
 211   10:10   0.79   80.7    45   12.1   217    16.4   1012.2    0.00 
 211   10:20   0.81   82.4    42   11.8   226    15.7   1012.2    0.00 
 211   10:30   0.82   83.5    41   13.1   229    16.5   1012.2    0.00 
 211   10:40   0.84   84.3    40   13.2   233    17.8   1012.2    0.00 
 211   10:50   0.84   84.8    40   13.0   232    16.5   1011.9    0.00 
 211   11:00   0.85   85.7    39   12.9   237    16.1   1011.9    0.00 
 211   11:10   0.87   86.6    38   12.8   225    16.7   1011.9    0.00 
 211   11:20   0.88   87.5    36   12.8   232    17.2   1011.9    0.00 
 211   11:30   0.89   88.3    35   11.8   229    16.0   1011.9    0.00 
 211   11:40   0.90   88.6    34   12.3   231    17.0   1011.5    0.00 
 211   11:50   0.90   89.3    33   12.5   227    16.7   1011.5    0.00 
 211   12:00   0.90   89.9    32   11.7   224    16.1   1011.5    0.00 
 211   12:10   0.91   90.6    31   12.1   227    16.3   1011.5    0.00 
 211   12:20   0.90   91.4    30   10.7   215    16.0   1011.2    0.00 
 211   12:30   0.90   91.5    30   11.9   225    16.1   1011.2    0.00 
 211   12:40   0.89   91.9    29   11.5   218    17.0   1011.2    0.00 
 211   12:50   0.89   92.4    29   12.1   216    16.4   1011.2    0.00 
 211   13:00   0.89   93.5    28   12.2   223    16.7   1010.8    0.00 
 211   13:10   0.88   94.6    27   12.5   216    21.1   1010.8    0.00 
 211   13:20   0.87   95.1    27   13.2   225    18.3   1010.8    0.00 
 211   13:30   0.86   95.3    26   13.3   221    18.2   1010.8    0.00 
 211   13:40   0.85   95.9    25   12.7   210    17.0   1010.8    0.00 
 211   13:50   0.84   95.9    25   13.7   222    18.6   1010.5    0.00 
 211   14:00   0.83   96.2    25   14.4   228    19.6   1010.5    0.00 
 211   14:10   0.82   96.4    25   14.8   228    20.4   1010.5    0.00 
 211   14:20   0.80   96.4    25   15.3   226    21.2   1010.5    0.00 
 211   14:30   0.78   96.2    24   16.8   225    22.1   1010.5    0.00 
 211   14:40   0.76   96.2    22   17.8   227    22.3   1010.2    0.00 
 211   14:50   0.74   96.7    21   17.9   223    22.2   1010.2    0.00 
 211   15:00   0.72   96.6    20   18.4   223    24.0   1010.2    0.00 
 211   15:10   0.69   96.9    19   18.0   221    22.5   1010.2    0.00 
 211   15:20   0.67   96.8    20   18.0   224    23.3   1010.2    0.00 
 211   15:30   0.64   96.9    20   17.8   225    22.7   1010.2    0.00 
 211   15:40   0.61   97.0    18   18.3   220    22.8   1010.2    0.00 
 211   15:50   0.58   96.6    21   18.1   224    22.8   1010.2    0.00 
 211   16:00   0.56   96.4    22   17.7   223    22.4   1009.8    0.00 
 211   16:10   0.53   96.3    22   18.2   219    23.0   1009.8    0.00 
 211   16:20   0.50   96.4    22   17.7   219    22.9   1009.8    0.00 
 211   16:30   0.47   95.5    24   17.9   220    23.4   1009.8    0.00 
 211   16:40   0.44   94.6    27   18.0   225    23.6   1009.8    0.00 
 211   16:50   0.41   93.3    28   19.7   224    23.8   1009.5    0.00 
 211   17:00   0.37   92.6    29   18.8   223    22.5   1009.5    0.00 
 211   17:10   0.34   92.4    30   18.5   222    22.0   1009.5    0.00 
 211   17:20   0.30   91.7    30   18.9   219    23.0   1009.1    0.00 
 211   17:30   0.28   90.8    31   20.6   219    24.8   1009.1    0.00 
 211   17:40   0.24   89.7    33   19.0   220    23.6   1009.1    0.00 
 211   17:50   0.22   89.1    34   19.8   218    24.5   1009.1    0.00 
 211   18:00   0.19   88.0    35   20.5   214    25.4   1009.1    0.00 
 211   18:10   0.15   87.2    35   19.1   214    23.9   1009.1    0.00 
 211   18:20   0.13   86.5    35   21.4   216    26.1   1008.8    0.00 
 211   18:30   0.10   85.5    36   21.2   211    26.2   1008.8    0.00 
 211   18:40   0.07   84.5    37   20.9   212    26.6   1008.8    0.00 
 211   18:50   0.06   83.5    38   19.5   213    24.8   1008.8    0.00 
 211   19:00   0.03   82.0    41   18.6   210    23.8   1008.8    0.00 
 211   19:10   0.02   80.4    44   17.9   206    22.4   1008.8    0.00 
 211   19:20   0.01   79.0    45   16.3   208    21.4   1008.8    0.00 
 211   19:30   0.00   77.6    47   16.1   206    19.6   1008.8    0.00 
 211   19:40   0.00   77.0    49   18.7   206    23.1   1009.1    0.00 
 211   19:50   0.00   76.6    50   19.0   202    23.1   1009.1    0.00 
 211   20:00   0.00   75.9    52   19.2   206    24.4   1009.1    0.00 
 211   20:10   0.00   74.9    52   20.7   208    25.8   1009.1    0.00 
 211   20:20   0.00   74.0    54   19.5   208    24.3   1009.5    0.00 
 211   20:30   0.00   73.2    55   19.0   208    23.7   1009.5    0.00 
 211   20:40   0.00   72.9    56   18.7   208    23.5   1009.8    0.00 
 211   20:50   0.00   72.1    58   18.8   206    26.2   1009.8    0.00 
 211   21:00   0.00   71.2    58   21.3   208    26.7   1009.8    0.00 
 211   21:10   0.00   70.7    59   21.2   211    26.5   1009.8    0.00 
 211   21:20   0.00   70.2    60   20.0   212    25.9   1009.8    0.00 
 211   21:30   0.00   69.8    61   18.7   211    24.8   1009.8    0.00 
 211   21:40   0.00   69.3    62   20.0   214    25.1   1009.8    0.00 
 211   21:50   0.00   68.7    63   20.0   214    24.8   1009.8    0.00 
 211   22:00   0.00   68.2    64   20.0   212    25.0   1009.8    0.00 
 211   22:10   0.00   68.0    64   19.1   212    26.0   1009.8    0.00 
 211   22:20   0.00   67.5    65   21.7   212    27.8   1009.8    0.00 
 211   22:30   0.00   67.1    66   21.7   216    26.9   1009.8    0.00 
 211   22:40   0.00   67.0    66   20.3   215    26.3   1009.8    0.00 
 211   22:50   0.00   66.5    67   19.5   214    24.5   1009.8    0.00 
 211   23:00   0.00   66.0    68   19.3   212    24.3   1009.8    0.00 
 211   23:10   0.00   65.8    69   19.1   215    23.0   1009.8    0.00 
 211   23:20   0.00   65.8    69   17.5   215    23.0   1009.8    0.00 
 211   23:30   0.00   65.8    69   18.6   214    22.4   1009.8    0.00 
 211   23:40   0.00   66.0    68   18.2   214    23.0   1009.8    0.00 
 211   23:50   0.00   65.9    69   18.6   215    24.5   1009.8    0.00 
 212    0:00   0.00   65.6    69   18.3   219    24.5   1009.8    0.00 
 212    0:10   0.00   65.5    69   17.5   221    22.4   1009.8    0.00 
 212    0:20   0.00   65.3    70   15.4   214    19.0   1009.8    0.00 
 212    0:30   0.00   64.7    72   17.7   213    20.8   1009.8    0.00 
 212    0:40   0.00   65.0    71   15.1   215    20.0   1009.8    0.00 
 212    0:50   0.00   65.0    71   16.5   216    20.8   1009.8    0.00 
 212    1:00   0.00   64.7    72   14.4   218    18.9   1009.8    0.00 
 212    1:10   0.00   64.8    71   15.1   217    21.3   1010.2    0.00 
 212    1:20   0.00   64.7    72   19.3   218    25.7   1009.8    0.00 
 212    1:30   0.00   64.7    73   23.0   218    27.9   1009.8    0.00 
 212    1:40   0.00   64.5    74   20.8   219    26.5   1009.8    0.00 
 212    1:50   0.00   64.4    74   18.9   218    22.1   1009.8    0.00 
 212    2:00   0.00   64.7    73   20.2   216    24.6   1009.8    0.00 
 212    2:10   0.00   64.5    73   19.0   212    23.5   1009.8    0.00 
 212    2:20   0.00   63.7    74   18.5   211    23.5   1009.8    0.00 
 212    2:30   0.00   62.9    77   17.6   210    21.7   1009.8    0.00 
 212    2:40   0.00   62.8    76   17.2   215    21.7   1009.8    0.00 
 212    2:50   0.00   62.6    77   14.9   214    19.8   1009.8    0.00 
 212    3:00   0.00   62.2    78   13.6   219    16.8   1009.8    0.00 
 212    3:10   0.00   62.1    78   11.7   223    15.9   1009.8    0.00 
 212    3:20   0.00   61.6    78   12.2   226    15.6   1009.8    0.00 
 212    3:30   0.00   61.2    79   13.7   232    17.8   1009.8    0.00 
 212    3:40   0.00   61.3    79   14.8   236    18.8   1009.8    0.00 
 212    3:50   0.00   61.2    79   14.6   226    20.8   1009.8    0.00 
 212    4:00   0.00   61.0    80   15.2   224    19.2   1009.8    0.00 
 212    4:10   0.00   60.9    80   16.9   218    24.8   1009.8    0.00 
 212    4:20   0.00   60.7    81   17.1   219    25.1   1010.2    0.00 
 212    4:30   0.00   60.3    81   16.4   213    21.4   1010.2    0.00 
 212    4:40   0.00   60.2    82   17.2   216    24.4   1010.2    0.00 
 212    4:50   0.00   60.3    82   19.5   221    24.1   1010.2    0.00 
 212    5:00   0.00   60.2    82   18.9   218    23.9   1010.2    0.00 
 212    5:10   0.00   59.7    84   18.9   219    25.3   1010.2    0.00 
 212    5:20   0.01   59.6    84   18.4   222    23.0   1010.2    0.00 
 212    5:30   0.02   59.5    84   16.7   226    20.6   1010.5    0.00 
 212    5:40   0.04   59.5    85   16.3   223    21.4   1010.5    0.00 
 212    5:50   0.05   59.6    85   16.0   231    20.1   1010.8    0.00 
 212    6:00   0.07   59.5    86   17.1   236    21.5   1010.8    0.00 
 212    6:10   0.09   59.7    85   18.7   234    23.9   1010.8    0.00 
 212    6:20   0.12   60.0    84   18.7   231    23.2   1010.8    0.00 
 212    6:30   0.14   60.7    82   17.4   222    22.6   1011.2    0.00 
 212    6:40   0.17   61.7    80   16.8   216    21.3   1011.2    0.00 
 212    6:50   0.23   62.4    79   16.6   217    22.6   1011.2    0.00 
 212    7:00   0.27   63.7    75   16.8   218    22.5   1011.2    0.00 
 212    7:10   0.30   65.4    71   15.0   218    19.4   1011.5    0.00 
 212    7:20   0.34   66.2    69   17.4   220    22.6   1011.5    0.00 
 212    7:30   0.37   66.9    66   17.4   218    22.5   1011.5    0.00 
 212    7:40   0.40   67.7    65   18.0   219    20.9   1011.5    0.00 
 212    7:50   0.43   68.5    63   19.0   218    23.8   1011.5    0.00 
 212    8:00   0.47   69.1    63   18.2   221    22.5   1011.5    0.00 

Return to Jepson Prairie Reserve graphs page.


Western Regional Climate Center,wrcc@dri.edu